CDT,Max TemperatureF,Mean TemperatureF,Min TemperatureF,Max Dew PointF,MeanDew PointF,Min DewpointF,Max Humidity, Mean Humidity, Min Humidity, Max Sea Level PressureIn, Mean Sea Level PressureIn, Min Sea Level PressureIn, Max VisibilityMiles, Mean VisibilityMiles, Min VisibilityMiles, Max Wind SpeedMPH, Mean Wind SpeedMPH, Max Gust SpeedMPH,PrecipitationIn, CloudCover, Events, WindDirDegrees
2013-4-1,60,51,42,48,42,37,93,70,48,30.18,30.09,29.94,10,10,2,16,8,21,0.09,1,,29
2013-4-2,46,42,39,36,30,27,75,62,53,30.34,30.27,30.18,10,10,3,16,11,,0.00,7,,29
2013-4-3,51,43,35,32,29,27,75,56,40,30.31,30.25,30.19,10,10,2,21,11,26,0.00,1,,33
2013-4-4,53,48,42,39,33,28,76,58,47,30.19,30.08,30.03,10,9,2,13,8,,0.00,6,,21
2013-4-5,66,50,35,45,36,28,87,60,30,30.20,30.12,30.08,10,10,5,12,4,,0.00,0,,194
2013-4-6,69,56,44,48,44,39,87,63,35,30.08,29.99,29.89,10,10,10,28,11,34,0.00,0,,177
2013-4-7,71,64,57,61,54,48,82,72,64,29.99,29.93,29.89,10,10,10,22,14,28,0.00,4,,182
2013-4-8,75,67,59,61,57,54,88,73,57,29.91,29.87,29.84,10,10,9,28,13,34,0.00,5,,168
2013-4-9,82,71,60,64,62,57,94,73,51,29.96,29.88,29.84,10,10,10,31,15,36,0.00,4,,168
2013-4-10,80,71,62,68,66,63,100,78,61,29.89,29.79,29.61,10,10,2,26,18,34,1.95,5,Thunderstorm,174
2013-4-11,53,48,44,50,40,36,94,75,51,29.83,29.76,29.69,10,10,8,23,14,29,0.06,4,,292
2013-4-12,64,52,39,43,37,34,93,61,32,30.02,29.90,29.82,10,10,10,18,8,23,0.00,0,,271
2013-4-13,64,55,46,48,43,36,77,61,48,30.12,30.03,29.92,10,10,2,13,7,,0.00,0,,114
2013-4-14,71,60,48,61,52,43,87,73,60,29.92,29.79,29.70,10,8,1,22,10,28,0.00,3,,148
2013-4-15,75,66,57,66,61,54,94,82,69,29.89,29.85,29.80,10,10,3,22,11,24,0.00,5,,172
2013-4-16,84,74,64,72,70,61,88,76,62,30.03,29.96,29.85,10,9,5,20,11,26,0.00,3,,172
2013-4-17,84,72,60,72,65,57,94,79,58,30.05,29.95,29.80,10,9,6,29,12,33,0.00,4,,150
2013-4-18,77,60,44,66,59,34,94,81,66,29.88,29.74,29.66,10,9,3,39,23,48,1.46,5,Thunderstorm,206
2013-4-19,57,49,41,34,29,27,66,49,33,30.14,30.02,29.89,10,10,7,23,14,29,0.01,4,,278
2013-4-20,62,50,39,48,40,30,93,65,42,30.27,30.21,30.14,10,10,10,12,4,,0.00,0,,113
2013-4-21,66,56,46,46,42,39,87,64,37,30.38,30.29,30.22,10,10,6,14,8,17,0.00,0,,62
2013-4-22,71,56,42,54,46,39,93,68,40,30.24,30.13,30.01,10,10,5,17,7,23,0.00,0,,97
2013-4-23,75,62,48,63,55,41,88,74,53,30.03,29.94,29.85,10,10,9,28,13,36,0.00,4,,185
2013-4-24,57,49,41,41,37,34,87,66,41,30.30,30.17,30.00,10,10,8,22,13,29,0.20,4,,311
2013-4-25,66,52,39,46,38,34,93,60,32,30.40,30.33,30.29,10,10,10,12,5,,0.00,0,,203
2013-4-26,55,52,48,50,48,45,100,86,72,30.43,30.31,30.23,10,9,4,16,8,21,0.82,6,Thunderstorm,57
2013-4-27,60,55,50,57,54,48,100,94,88,30.23,30.06,29.94,10,9,2,18,9,,0.95,8,Thunderstorm,49
2013-4-28,64,60,55,55,53,50,94,82,64,30.01,29.97,29.94,10,10,10,13,7,,0.00,7,,260
2013-4-29,77,62,48,64,58,46,100,81,65,30.01,29.93,29.85,10,9,0,15,7,20,0.00,0,,172
2013-4-30,80,68,57,63,58,54,94,69,42,29.96,29.92,29.88,10,10,10,15,8,23,0.00,0,,167